ADDS TAF Data INFO
IDs: Format: Raw Decoded Include METARs

Data at: 1212 UTC 24 Mar 2017

Region: TOP
KATL 241132Z 2412/2518 13010KT P6SM BKN045
  FM242200 13008KT P6SM SCT050 BKN120
  FM250800 13008KT P6SM SCT012 BKN025
  FM251400 15010KT P6SM BKN045


KBOS 241120Z 2412/2518 19012KT P6SM BKN100
  FM241800 21014G26KT P6SM -RA OVC035
  FM242000 21014G26KT P6SM OVC035
  FM242200 23012KT P6SM OVC035
  FM251100 29005KT P6SM OVC050
  FM251400 35005KT P6SM VCSH OVC040


KBWI 241138Z 2412/2518 20006KT P6SM BKN160
  FM241800 20011G18KT P6SM BKN070
  FM250000 21007KT P6SM BKN250
  FM250200 22006KT P6SM BKN250 WS020/24035KT
  FM250800 23004KT P6SM BKN250


KCLE 241120Z 2412/2518 19015G25KT P6SM OVC070
  TEMPO 2412/2416 -SHRA
  FM241600 21015G25KT P6SM SCT070 OVC250
  FM241800 22015G25KT P6SM OVC250
  FM250100 21012KT P6SM OVC035
  FM250600 21006KT P6SM OVC040


KCLT 241128Z 2412/2512 17005KT P6SM FEW060
  FM241300 19006KT P6SM SCT050
  FM250300 18004KT P6SM SCT040 BKN150


KCVG 241136Z 2412/2518 19010KT P6SM SCT120 WS020/21045KT
  FM241400 20012G20KT P6SM BKN040
  FM250000 19007KT P6SM BKN080
  FM250900 18008KT P6SM OVC090 WS020/20050KT
  FM251500 18011G22KT P6SM BKN100


KDCA 241138Z 2412/2512 19010KT P6SM BKN250
  FM241800 19012G20KT P6SM BKN100
  FM250000 21008KT P6SM BKN250


KDEN 241120Z 2412/2518 34022G34KT 4SM -SN BR OVC005
  FM241300 34025G35KT 5SM -SN BR SCT004 OVC008
  FM241500 35022G35KT P6SM VCSH OVC015
  FM241800 03012KT P6SM SCT025 BKN060
  FM242100 09008KT P6SM FEW040 SCT100
  FM250200 18007KT P6SM FEW100
  FM250500 20008KT P6SM FEW250
  FM251500 15008KT P6SM SCT250


KDFW 241124Z 2412/2518 17016KT P6SM -RA BKN060 BKN250
  FM241300 18016KT P6SM VCSH BKN050
  TEMPO 2414/2416 6SM -SHRA BKN030
  FM241600 21015G25KT P6SM BKN070 BKN100
  FM241800 21020G30KT P6SM FEW100
  FM250000 21016KT P6SM FEW100
  FM250300 29016KT P6SM FEW250


KDTW 241122Z 2412/2518 20011KT P6SM SCT040 BKN060 WS020/23045KT
  FM241400 22014G25KT P6SM SCT040 BKN060
  FM250000 23010KT P6SM OVC020
  FM250600 06006KT 4SM -RA BR OVC012
  FM251400 08010KT 2SM -RA BR OVC008


KEWR 241120Z 2412/2518 21007KT P6SM BKN120
  FM241400 21011G18KT P6SM OVC080
  TEMPO 2416/2418 6SM -RA BKN040
  FM241800 22012G20KT P6SM BKN040
  FM242300 22007KT P6SM BKN040
  FM250300 23008KT P6SM SCT040 BKN080
  FM251300 23005KT P6SM -DZ BKN030


KFLL 241122Z 2412/2512 07015G25KT P6SM VCSH SCT025 BKN035 BKN070
  FM241400 08020G30KT P6SM VCSH SCT025 BKN050
  FM250000 10012KT P6SM VCSH SCT030 SCT050


KIAD 241138Z 2412/2518 18010KT P6SM BKN060 BKN160
  FM241300 19010KT P6SM OVC140
  FM241800 19012G20KT P6SM BKN070
  FM250000 20008KT P6SM BKN250
  FM250700 21004KT P6SM BKN250


KIAH 241131Z 2412/2518 17009KT P6SM FEW022 SCT035 SCT250
  FM241400 17010G18KT P6SM SCT025 BKN040
  FM241700 17016G24KT P6SM VCSH BKN035
  FM242200 17018G26KT P6SM VCTS SCT025 BKN035CB
  TEMPO 2423/2503 TSRA
  FM250400 19012KT P6SM SCT015 BKN030
  FM251200 25006KT P6SM VCSH BKN025
  FM251500 31010KT P6SM FEW040


KJFK 241120Z 2412/2518 21012KT P6SM SCT120 BKN200
  FM241400 20013G18KT P6SM OVC080
  TEMPO 2416/2418 6SM -RA BKN040
  FM241900 20013G20KT P6SM BKN040
  FM242300 21010KT P6SM BKN040
  FM250300 23008KT P6SM SCT040 BKN080
  FM251300 23005KT P6SM -DZ BKN030


KLAS 241133Z 2412/2512 VRB04KT P6SM SCT250
  FM241900 08007KT P6SM BKN250
  FM242100 15011KT P6SM BKN250
  FM250100 18012G20KT P6SM OVC250
  FM250600 20015G23KT P6SM FEW120 OVC250


KLAX 241138Z 2412/2518 VRB03KT P6SM OVC015
  FM241700 VRB03KT P6SM SCT015
  FM242100 26012KT P6SM SCT025 BKN250
  FM250300 27010KT P6SM SCT010
  FM250800 29005KT P6SM BKN025
  FM251400 07005KT P6SM VCSH BKN025
  FM251700 27012KT P6SM SKC


KLGA 241120Z 2412/2512 22007KT P6SM SCT120 BKN200
  FM241400 20013G18KT P6SM OVC080
  TEMPO 2416/2418 6SM -RA BKN040
  FM241900 21013G20KT P6SM BKN040
  FM242300 23010KT P6SM BKN040
  FM250300 23008KT P6SM SCT040 BKN080


KMCO 241120Z 2412/2512 06008KT P6SM SCT040
  FM241400 09012G20KT P6SM SCT030 BKN045
  FM250000 08008KT P6SM SCT035


KMDW 241139Z 2412/2512 20011G16KT P6SM FEW045 BKN200 WS015/21050KT
  FM241400 22016G24KT P6SM BKN250
  FM241700 22020G30KT P6SM FEW035 SCT250
  FM242200 21013G21KT P6SM BKN040
  FM250300 06010KT 3SM BR VCSH SCT008 BKN025
  FM250500 05008KT 2SM -RA BR SCT004 OVC007
  FM250800 05009KT 2SM -RA BR SCT002 OVC005


KMEM 241130Z 2412/2512 17012G21KT P6SM BKN250
  FM241500 18013G22KT P6SM OVC025
  FM241800 18015G25KT P6SM BKN035 OVC250
  FM250600 18020G28KT P6SM VCTS BKN060CB OVC150
  TEMPO 2506/2509 2SM TSRA OVC025CB
  FM250900 20020G25KT 2SM TSRA OVC015CB


KMIA 241122Z 2412/2512 08014KT P6SM VCSH SCT025 BKN040 BKN070
  FM241400 08019G28KT P6SM VCSH SCT025 BKN050
  FM250000 08011KT P6SM VCSH SCT030 SCT050


KMSP 241135Z 2412/2518 02010KT 3SM -RA BR SCT004 OVC008
  FM241800 02011KT P6SM SCT012 OVC025
  FM242200 03012G18KT P6SM BKN025
  FM250500 04011KT P6SM OVC015


KORD 241139Z 2412/2518 20011G16KT P6SM FEW045 BKN200 WS015/21050KT
  FM241400 22016G24KT P6SM BKN250
  FM241700 22020G30KT P6SM FEW035 SCT250
  FM242200 21013G21KT P6SM BKN040
  FM250200 06010KT 3SM BR VCSH SCT008 BKN025
  FM250400 05008KT 2SM -RA BR SCT004 OVC007
  FM250800 05009KT 2SM -RA BR SCT002 OVC005


KPDX 241134Z 2412/2512 12012KT 6SM -RA SCT025 OVC035
  TEMPO 2413/2416 5SM -RA BKN025 OVC035
  FM241700 17010KT P6SM -SHRA SCT025 OVC035
  FM241800 19010KT P6SM -SHRA SCT025 BKN040
  FM250300 19005KT P6SM -SHRA SCT025 BKN040


KPHL 241128Z 2412/2518 18008KT P6SM BKN250
  FM241400 21012KT P6SM SCT100 BKN200
  TEMPO 2416/2418 4SM -RA OVC025
  FM241800 22014G19KT P6SM SCT040 BKN080
  FM242300 22008KT P6SM BKN090
  FM250300 24006KT P6SM BKN150
  FM251500 26008KT P6SM BKN050


KPHX 241123Z 2412/2512 11004KT P6SM SKC
  FM242000 29007KT P6SM SKC
  FM250600 11006KT P6SM SCT250


KPIT 241120Z 2412/2518 18007KT P6SM -RA OVC060
  FM241400 20010G20KT P6SM BKN100
  FM250900 21006KT P6SM OVC025


KSAN 241125Z 2412/2518 VRB05KT P6SM FEW025
  FM242000 29010KT P6SM SCT250
  FM250200 30006KT P6SM SCT025
  FM250500 VRB04KT P6SM BKN020
  FM251600 VRB04KT P6SM BKN030


KSEA 241130Z 2412/2518 11009KT P6SM VCSH BKN045 OVC080
  TEMPO 2412/2416 -SHRA OVC035
  FM241600 18009KT P6SM VCSH BKN045 OVC080
  FM242000 21012G22KT P6SM -SHRA SCT035 BKN050 OVC070
  FM250300 20009KT P6SM VCSH SCT040 BKN060 BKN100


KSFO 241129Z 2412/2518 14011KT P6SM -SHRA SCT030 OVC050
  FM241500 16019G25KT P6SM -RA BKN025 OVC040
  FM241800 18020G28KT P6SM -RA OVC025
  TEMPO 2418/2422 4SM RA
  FM250100 22007KT P6SM VCSH SCT030 BKN050
  FM250500 25005KT P6SM SCT050 SCT080
  FM251000 27005KT P6SM FEW030
  FM251500 28007KT P6SM SCT020 SCT200


KSLC 241120Z 2412/2518 15007KT P6SM SCT080 SCT120
  FM250300 16010KT P6SM SCT080 BKN120
  FM250600 16008KT P6SM SCT060 BKN100
  FM251000 16008KT P6SM VCSH SCT030 BKN060
  FM251400 16007KT P6SM -RA SCT020 BKN040


KSTL 241130Z 2412/2518 18007KT P6SM SCT250 WS016/21040KT
  FM241400 18012G25KT P6SM SCT250
  FM250000 17012G20KT P6SM VCTS OVC050CB
  FM250200 16011G19KT 5SM -TSRA OVC030CB
  FM250400 16011G19KT 5SM -SHRA OVC020


KTPA 241128Z 2412/2512 07007KT P6SM SKC
  FM241500 08010G16KT P6SM FEW040
  FM241800 09008G15KT P6SM SCT050
  FM242300 08006KT P6SM FEW050
  FM250600 09005KT P6SM SCT250



Page loaded:  12:12 UTC  |   05:12 AM Pacific  |   06:12 AM Mountain  |   07:12 AM Central  |   08:12 AM Eastern

 

ADVISORIES

FORECASTS

FORECASTS

OBSERVATIONS

USER TOOLS

ABOUT US